Time;durP1;ratioP1;P1;durP2;ratioP2;P2;SDS_P1;SDS_P2;PMS_P1;PMS_P2;Temp;Humidity;BMP_temperature;BMP_pressure;BME280_temperature;BME280_humidity;BME280_pressure;Samples;Min_cycle;Max_cycle;Signal;HPM_P1;HPM_P2
2021/12/10 00:01:07;;;;;;;;;;;20.50;52.90;;;;;;5034371;28;1361;-68
2021/12/10 00:03:33;;;;;;;;;;;20.50;52.90;;;;;;5034834;28;1290;-68
2021/12/10 00:06:25;;;;;;;;;;;20.50;53.00;;;;;;5056138;28;1431;-68
2021/12/10 00:08:56;;;;;;;;;;;20.50;53.00;;;;;;5053332;28;1320;-68
2021/12/10 00:11:39;;;;;;;;;;;20.50;53.00;;;;;;5049452;28;1945;-68
2021/12/10 00:14:04;;;;;;;;;;;20.50;53.00;;;;;;5038273;28;2180;-67
2021/12/10 00:16:29;;;;;;;;;;;20.50;53.00;;;;;;5038512;28;1339;-68
2021/12/10 00:19:08;;;;;;;;;;;20.50;53.10;;;;;;5056284;28;1364;-68
2021/12/10 00:21:33;;;;;;;;;;;20.50;53.10;;;;;;5055992;28;1419;-68
2021/12/10 00:23:59;;;;;;;;;;;20.40;53.10;;;;;;5056603;28;1287;-68
2021/12/10 00:26:24;;;;;;;;;;;20.40;53.10;;;;;;5038635;28;1664;-68
2021/12/10 00:28:50;;;;;;;;;;;20.40;53.10;;;;;;5055918;28;1267;-68
2021/12/10 00:31:42;;;;;;;;;;;20.40;53.20;;;;;;5055958;28;1337;-69
2021/12/10 00:34:08;;;;;;;;;;;20.40;53.10;;;;;;5056157;28;1276;-68
2021/12/10 00:36:36;;;;;;;;;;;20.40;53.20;;;;;;5056104;28;1333;-68
2021/12/10 00:39:03;;;;;;;;;;;20.40;53.20;;;;;;5056053;28;1680;-68
2021/12/10 00:41:28;;;;;;;;;;;20.40;53.20;;;;;;5055386;28;1306;-68
2021/12/10 00:43:54;;;;;;;;;;;20.40;53.20;;;;;;5055866;28;1283;-71
2021/12/10 00:46:19;;;;;;;;;;;20.40;53.30;;;;;;5038063;28;1140;-71
2021/12/10 00:48:45;;;;;;;;;;;20.40;53.30;;;;;;5037796;28;1369;-70
2021/12/10 00:51:10;;;;;;;;;;;20.30;53.30;;;;;;5055791;28;1281;-70
2021/12/10 00:53:36;;;;;;;;;;;20.40;53.40;;;;;;5021248;28;1918;-68
2021/12/10 00:56:02;;;;;;;;;;;20.30;53.30;;;;;;5037988;28;1287;-68
2021/12/10 00:58:28;;;;;;;;;;;20.30;53.40;;;;;;5055901;28;1266;-68
2021/12/10 01:00:55;;;;;;;;;;;20.40;53.40;;;;;;5055276;28;1337;-68
2021/12/10 01:03:22;;;;;;;;;;;20.30;53.40;;;;;;5055527;28;1191;-69
2021/12/10 01:05:48;;;;;;;;;;;20.30;53.40;;;;;;5037772;28;1334;-69
2021/12/10 01:08:14;;;;;;;;;;;20.30;53.40;;;;;;5037710;28;1306;-68
2021/12/10 01:10:41;;;;;;;;;;;20.30;53.50;;;;;;5055268;28;1272;-68
2021/12/10 01:13:08;;;;;;;;;;;20.30;53.50;;;;;;5037213;28;1899;-69
2021/12/10 01:15:47;;;;;;;;;;;20.30;53.50;;;;;;5055006;28;1323;-68
2021/12/10 01:28:44;;;;;;;;;;;20.30;53.60;;;;;;5038343;28;1389;-70
2021/12/10 01:31:10;;;;;;;;;;;20.20;53.50;;;;;;5037002;28;1084;-70
2021/12/10 01:33:35;;;;;;;;;;;20.30;53.60;;;;;;5054856;28;1906;-70
2021/12/10 01:36:06;;;;;;;;;;;20.30;53.60;;;;;;5037254;28;1286;-70
2021/12/10 01:38:32;;;;;;;;;;;20.30;53.60;;;;;;5037965;28;1006;-69
2021/12/10 01:41:00;;;;;;;;;;;20.30;53.60;;;;;;5054421;28;1276;-69
2021/12/10 01:43:25;;;;;;;;;;;20.30;53.60;;;;;;5037385;28;1277;-70
2021/12/10 01:45:55;;;;;;;;;;;20.20;54.20;;;;;;5036910;28;1180;-69
2021/12/10 01:48:25;;;;;;;;;;;20.20;53.60;;;;;;5036848;28;1293;-69
2021/12/10 01:50:50;;;;;;;;;;;20.20;53.60;;;;;;5075467;22;3555;-70
2021/12/10 01:53:17;;;;;;;;;;;20.20;53.70;;;;;;5045210;28;1955;-71
2021/12/10 01:55:44;;;;;;;;;;;20.20;53.60;;;;;;5028605;28;1206;-71
2021/12/10 01:58:11;;;;;;;;;;;20.20;53.60;;;;;;5054610;28;1373;-70
2021/12/10 02:00:38;;;;;;;;;;;20.20;53.70;;;;;;5039851;28;1454;-71
2021/12/10 02:03:03;;;;;;;;;;;20.20;53.60;;;;;;5034282;28;1370;-71
2021/12/10 02:05:28;;;;;;;;;;;20.20;53.70;;;;;;5034680;28;1775;-71
2021/12/10 02:07:54;;;;;;;;;;;20.20;53.60;;;;;;5034658;28;1357;-71
2021/12/10 02:10:20;;;;;;;;;;;20.20;53.60;;;;;;5033278;28;1639;-70
2021/12/10 02:12:46;;;;;;;;;;;20.20;53.60;;;;;;5033149;28;1961;-70
2021/12/10 02:15:12;;;;;;;;;;;20.20;53.70;;;;;;5034460;28;1723;-70
2021/12/10 02:17:39;;;;;;;;;;;20.20;53.70;;;;;;5027632;28;1818;-71
2021/12/10 02:20:09;;;;;;;;;;;20.20;53.70;;;;;;5011729;28;1682;-71
2021/12/10 02:22:35;;;;;;;;;;;20.20;53.70;;;;;;5016378;28;1417;-71
2021/12/10 02:25:00;;;;;;;;;;;20.20;53.70;;;;;;5016504;28;1705;-71
2021/12/10 02:27:26;;;;;;;;;;;20.20;54.30;;;;;;5034452;28;1393;-71
2021/12/10 02:29:51;;;;;;;;;;;20.20;53.70;;;;;;5033949;28;1497;-71
2021/12/10 02:32:17;;;;;;;;;;;20.20;53.70;;;;;;5016239;28;1946;-70
2021/12/10 02:34:44;;;;;;;;;;;20.20;53.70;;;;;;5029293;28;1417;-70
2021/12/10 02:37:10;;;;;;;;;;;20.20;53.70;;;;;;5034286;28;1669;-71
2021/12/10 02:39:35;;;;;;;;;;;20.20;53.70;;;;;;5032878;28;1410;-70
2021/12/10 02:42:00;;;;;;;;;;;20.20;53.70;;;;;;5016155;28;1253;-70
2021/12/10 02:44:27;;;;;;;;;;;20.30;53.80;;;;;;5033741;28;1548;-71
2021/12/10 02:46:53;;;;;;;;;;;20.30;53.70;;;;;;5032940;28;1731;-72
2021/12/10 02:49:18;;;;;;;;;;;20.40;53.60;;;;;;5032542;28;1602;-71
2021/12/10 02:51:44;;;;;;;;;;;20.40;53.50;;;;;;5015635;28;1898;-72
2021/12/10 02:54:10;;;;;;;;;;;20.50;53.40;;;;;;5033653;28;1647;-71
2021/12/10 02:56:35;;;;;;;;;;;20.50;53.20;;;;;;5033737;28;1552;-72
2021/12/10 02:59:02;;;;;;;;;;;20.60;53.10;;;;;;5032347;28;1641;-70
2021/12/10 03:01:33;;;;;;;;;;;20.70;53.10;;;;;;5025375;28;1148;-71
2021/12/10 03:03:59;;;;;;;;;;;20.70;52.90;;;;;;5030057;28;1697;-71
2021/12/10 03:06:25;;;;;;;;;;;20.70;52.70;;;;;;5015888;28;1373;-71
2021/12/10 03:08:50;;;;;;;;;;;20.80;52.70;;;;;;5032417;28;1299;-71
2021/12/10 03:11:16;;;;;;;;;;;20.80;52.50;;;;;;5033039;28;1406;-71
2021/12/10 03:13:42;;;;;;;;;;;20.90;52.50;;;;;;5033553;28;1906;-71
2021/12/10 03:16:07;;;;;;;;;;;20.90;52.40;;;;;;5033674;28;1277;-71
2021/12/10 03:18:34;;;;;;;;;;;20.90;52.30;;;;;;5020076;28;1401;-71
2021/12/10 03:20:59;;;;;;;;;;;20.90;52.30;;;;;;5004515;28;1366;-72
2021/12/10 03:23:25;;;;;;;;;;;20.90;52.20;;;;;;5008057;28;1241;-71
2021/12/10 03:25:50;;;;;;;;;;;21.00;52.20;;;;;;5008699;28;1212;-71
2021/12/10 03:28:16;;;;;;;;;;;21.00;52.20;;;;;;5027274;28;1356;-71
2021/12/10 03:30:42;;;;;;;;;;;21.00;52.20;;;;;;5031266;28;1414;-70
2021/12/10 03:33:08;;;;;;;;;;;21.00;52.10;;;;;;5032748;28;1910;-70
2021/12/10 03:35:35;;;;;;;;;;;21.00;52.10;;;;;;5033137;28;1644;-71
2021/12/10 03:38:01;;;;;;;;;;;21.00;52.10;;;;;;5033112;28;1694;-70
2021/12/10 03:40:26;;;;;;;;;;;21.00;52.00;;;;;;5030333;28;1613;-71
2021/12/10 03:42:58;;;;;;;;;;;21.00;52.00;;;;;;5025894;28;1401;-71
2021/12/10 03:45:24;;;;;;;;;;;21.00;52.00;;;;;;5024207;28;1431;-70
2021/12/10 03:47:49;;;;;;;;;;;21.00;52.00;;;;;;5007732;28;1658;-71
2021/12/10 03:50:19;;;;;;;;;;;21.00;51.90;;;;;;5032638;28;1419;-71
2021/12/10 03:52:45;;;;;;;;;;;21.00;51.90;;;;;;5032446;28;1969;-71
2021/12/10 03:55:10;;;;;;;;;;;21.00;52.00;;;;;;5032523;28;1077;-71
2021/12/10 03:57:36;;;;;;;;;;;21.00;52.00;;;;;;5032668;28;1127;-71
2021/12/10 04:00:02;;;;;;;;;;;21.00;51.90;;;;;;5032769;28;1291;-71
2021/12/10 04:02:28;;;;;;;;;;;21.00;51.90;;;;;;5032381;28;1309;-71
2021/12/10 04:04:53;;;;;;;;;;;21.00;51.90;;;;;;5032668;28;1119;-71
2021/12/10 04:07:20;;;;;;;;;;;21.00;51.90;;;;;;5032604;28;1397;-71
2021/12/10 04:09:45;;;;;;;;;;;21.00;52.00;;;;;;5032383;28;1299;-71
2021/12/10 04:12:11;;;;;;;;;;;21.00;52.00;;;;;;5014533;28;1902;-71
2021/12/10 04:14:36;;;;;;;;;;;21.00;52.00;;;;;;5014819;28;1288;-71
2021/12/10 04:17:03;;;;;;;;;;;21.00;52.00;;;;;;5014901;28;1352;-71
2021/12/10 04:19:29;;;;;;;;;;;21.00;52.00;;;;;;5014794;28;1263;-71
2021/12/10 04:21:56;;;;;;;;;;;21.00;52.00;;;;;;5014636;28;1201;-71
2021/12/10 04:24:23;;;;;;;;;;;21.00;52.60;;;;;;5014965;28;1081;-71
2021/12/10 04:26:49;;;;;;;;;;;21.00;52.00;;;;;;5015074;28;1321;-70
2021/12/10 04:29:14;;;;;;;;;;;21.00;52.10;;;;;;5032383;28;1303;-71
2021/12/10 04:31:39;;;;;;;;;;;21.00;52.10;;;;;;5032094;28;1906;-71
2021/12/10 04:34:05;;;;;;;;;;;21.00;52.20;;;;;;5032469;28;1068;-71
2021/12/10 04:36:31;;;;;;;;;;;21.00;52.10;;;;;;5032290;28;1265;-71
2021/12/10 04:38:56;;;;;;;;;;;21.00;52.10;;;;;;5014487;28;1345;-71
2021/12/10 04:41:22;;;;;;;;;;;21.00;52.20;;;;;;5014251;28;1340;-71
2021/12/10 04:43:47;;;;;;;;;;;20.90;52.10;;;;;;5031173;28;1077;-75
2021/12/10 04:46:13;;;;;;;;;;;20.90;52.20;;;;;;5032785;28;1320;-71
2021/12/10 04:48:47;;;;;;;;;;;20.90;52.20;;;;;;5031080;28;1088;-71
2021/12/10 04:51:12;;;;;;;;;;;20.90;52.20;;;;;;5014638;28;1388;-71
2021/12/10 04:53:37;;;;;;;;;;;20.90;52.20;;;;;;5035606;28;1965;-71
2021/12/10 04:56:03;;;;;;;;;;;20.90;52.20;;;;;;5035852;28;1390;-71
2021/12/10 04:58:28;;;;;;;;;;;20.90;52.20;;;;;;5034484;28;1147;-71
2021/12/10 05:00:54;;;;;;;;;;;20.90;52.20;;;;;;5035308;28;1391;-71
2021/12/10 05:03:19;;;;;;;;;;;20.90;52.30;;;;;;5034447;28;1305;-71
2021/12/10 05:05:45;;;;;;;;;;;20.90;52.30;;;;;;5034273;28;1327;-71
2021/12/10 05:08:10;;;;;;;;;;;20.90;52.30;;;;;;5035419;28;1327;-71
2021/12/10 05:10:36;;;;;;;;;;;20.90;52.30;;;;;;5017653;28;1353;-71
2021/12/10 05:13:01;;;;;;;;;;;20.90;52.30;;;;;;5035288;28;1947;-71
2021/12/10 05:15:27;;;;;;;;;;;20.80;52.30;;;;;;5035276;28;1232;-71
2021/12/10 05:17:53;;;;;;;;;;;20.90;52.30;;;;;;5026387;28;1291;-72
2021/12/10 05:20:26;;;;;;;;;;;20.80;52.30;;;;;;5014751;28;1371;-72
2021/12/10 05:22:51;;;;;;;;;;;20.80;52.30;;;;;;5035031;28;1081;-72
2021/12/10 05:25:17;;;;;;;;;;;20.80;52.30;;;;;;5035487;28;1191;-71
2021/12/10 05:27:42;;;;;;;;;;;20.90;52.40;;;;;;5001133;28;1391;-71
2021/12/10 05:30:09;;;;;;;;;;;20.80;52.40;;;;;;5017259;28;1359;-72
2021/12/10 05:32:34;;;;;;;;;;;20.80;52.40;;;;;;5017131;28;1894;-72
2021/12/10 05:35:00;;;;;;;;;;;20.80;52.40;;;;;;5034946;28;1316;-72
2021/12/10 05:37:25;;;;;;;;;;;20.80;52.40;;;;;;5035174;28;1324;-71
2021/12/10 05:39:51;;;;;;;;;;;20.80;52.40;;;;;;5017206;28;1314;-71
2021/12/10 05:42:16;;;;;;;;;;;20.80;52.50;;;;;;5033499;28;1324;-71
2021/12/10 05:44:42;;;;;;;;;;;20.80;52.50;;;;;;5034826;28;1272;-71
2021/12/10 05:47:08;;;;;;;;;;;20.80;52.50;;;;;;5033769;28;1310;-72
2021/12/10 05:49:33;;;;;;;;;;;20.80;52.50;;;;;;5033205;28;1283;-71
2021/12/10 05:51:58;;;;;;;;;;;20.80;52.50;;;;;;5033353;28;1905;-71
2021/12/10 05:54:24;;;;;;;;;;;20.80;52.50;;;;;;5034828;28;1309;-71
2021/12/10 05:56:49;;;;;;;;;;;20.80;52.50;;;;;;5034666;28;1048;-72
2021/12/10 05:59:15;;;;;;;;;;;20.80;52.50;;;;;;5016770;28;1437;-71
2021/12/10 06:01:40;;;;;;;;;;;20.70;52.50;;;;;;5034269;28;1314;-71
2021/12/10 06:04:06;;;;;;;;;;;20.70;52.50;;;;;;5034485;28;1123;-70
2021/12/10 06:06:31;;;;;;;;;;;20.70;52.50;;;;;;5034385;28;1099;-72
2021/12/10 06:08:57;;;;;;;;;;;20.80;52.60;;;;;;5027679;28;1957;-70
2021/12/10 06:11:23;;;;;;;;;;;20.80;52.60;;;;;;5015054;28;1087;-69
2021/12/10 06:13:48;;;;;;;;;;;20.70;52.60;;;;;;5027342;28;1961;-69
2021/12/10 06:16:14;;;;;;;;;;;20.70;52.60;;;;;;5034267;28;1276;-69
2021/12/10 06:18:39;;;;;;;;;;;20.70;52.60;;;;;;5020559;28;1301;-69
2021/12/10 06:21:05;;;;;;;;;;;20.70;52.60;;;;;;5015884;28;1225;-69
2021/12/10 06:23:30;;;;;;;;;;;20.70;52.60;;;;;;5033897;28;1320;-70
2021/12/10 06:25:56;;;;;;;;;;;20.70;52.60;;;;;;5034253;28;1285;-70
2021/12/10 06:28:21;;;;;;;;;;;20.70;52.70;;;;;;5034010;28;1335;-70
2021/12/10 06:30:47;;;;;;;;;;;20.70;52.70;;;;;;5016080;28;1229;-71
2021/12/10 06:33:14;;;;;;;;;;;20.70;52.70;;;;;;4999701;28;1902;-71
2021/12/10 06:35:40;;;;;;;;;;;20.70;52.70;;;;;;5033515;28;1405;-69
2021/12/10 06:38:05;;;;;;;;;;;20.70;52.70;;;;;;5033883;28;1328;-69
2021/12/10 06:40:31;;;;;;;;;;;20.70;52.70;;;;;;5033855;28;1311;-69
2021/12/10 06:42:57;;;;;;;;;;;20.70;53.30;;;;;;5015672;28;1699;-71
2021/12/10 06:45:23;;;;;;;;;;;20.70;52.70;;;;;;5033868;28;1233;-72
2021/12/10 06:47:50;;;;;;;;;;;20.70;52.70;;;;;;5032290;28;1298;-72
2021/12/10 06:50:16;;;;;;;;;;;20.70;52.70;;;;;;5033229;28;1354;-70
2021/12/10 06:52:41;;;;;;;;;;;20.70;52.70;;;;;;5033393;28;1969;-71
2021/12/10 06:55:07;;;;;;;;;;;20.70;52.70;;;;;;5033518;28;1268;-71
2021/12/10 06:57:34;;;;;;;;;;;20.70;52.70;;;;;;5032355;28;1339;-72
2021/12/10 07:00:00;;;;;;;;;;;20.70;52.70;;;;;;5032996;28;1389;-71
2021/12/10 07:02:26;;;;;;;;;;;20.70;52.60;;;;;;5033057;28;1355;-71
2021/12/10 07:04:51;;;;;;;;;;;20.70;52.60;;;;;;5033545;28;1057;-71
2021/12/10 07:07:17;;;;;;;;;;;20.80;52.60;;;;;;5032914;28;1371;-71
2021/12/10 07:09:42;;;;;;;;;;;20.80;52.60;;;;;;5032035;28;1368;-72
2021/12/10 07:12:08;;;;;;;;;;;20.80;52.60;;;;;;5032580;28;1906;-70
2021/12/10 07:14:33;;;;;;;;;;;20.80;52.50;;;;;;5032700;28;1261;-69
2021/12/10 07:16:58;;;;;;;;;;;20.80;52.50;;;;;;5031648;28;1235;-70
2021/12/10 07:19:26;;;;;;;;;;;20.80;52.50;;;;;;5004937;28;1342;-69
2021/12/10 07:21:52;;;;;;;;;;;20.80;52.50;;;;;;5032846;28;1362;-71
2021/12/10 07:24:17;;;;;;;;;;;20.80;52.50;;;;;;5033142;28;1268;-71
2021/12/10 07:26:43;;;;;;;;;;;20.80;52.40;;;;;;4998978;28;1217;-71
2021/12/10 07:29:08;;;;;;;;;;;20.80;52.70;;;;;;5033099;28;1331;-70
2021/12/10 07:31:34;;;;;;;;;;;20.80;52.70;;;;;;5015060;28;1151;-71
2021/12/10 07:33:59;;;;;;;;;;;20.80;52.70;;;;;;5015151;28;1894;-71
2021/12/10 07:36:25;;;;;;;;;;;20.80;52.60;;;;;;5015647;28;1380;-71
2021/12/10 07:38:51;;;;;;;;;;;20.80;52.60;;;;;;5033477;28;1339;-70
2021/12/10 07:41:17;;;;;;;;;;;20.80;52.60;;;;;;5032402;28;1339;-70
2021/12/10 07:43:42;;;;;;;;;;;20.80;52.60;;;;;;5032995;28;1311;-71
2021/12/10 07:46:08;;;;;;;;;;;20.80;52.50;;;;;;5032760;28;1128;-70
2021/12/10 07:48:35;;;;;;;;;;;20.80;52.60;;;;;;5031510;28;1293;-72
2021/12/10 07:51:05;;;;;;;;;;;20.80;52.60;;;;;;5032895;28;1274;-70
2021/12/10 07:53:31;;;;;;;;;;;20.90;52.60;;;;;;5031643;28;1914;-70
2021/12/10 07:55:58;;;;;;;;;;;21.00;52.40;;;;;;5033060;28;1345;-70
2021/12/10 07:58:24;;;;;;;;;;;21.20;52.90;;;;;;5032880;28;1354;-70
2021/12/10 08:00:49;;;;;;;;;;;21.30;52.20;;;;;;5032188;28;1284;-71
2021/12/10 08:03:15;;;;;;;;;;;21.40;52.00;;;;;;5032591;28;1505;-70
2021/12/10 08:05:41;;;;;;;;;;;21.50;51.70;;;;;;5031489;28;1139;-70
2021/12/10 08:08:06;;;;;;;;;;;21.60;51.50;;;;;;5032717;28;1229;-71
2021/12/10 08:10:32;;;;;;;;;;;21.70;51.30;;;;;;5032489;28;1325;-70
2021/12/10 08:12:57;;;;;;;;;;;21.80;51.00;;;;;;5032435;28;1952;-70
2021/12/10 08:15:23;;;;;;;;;;;21.90;50.80;;;;;;5032175;28;1299;-70
2021/12/10 08:17:48;;;;;;;;;;;22.00;50.60;;;;;;5024000;28;1132;-71
2021/12/10 08:20:18;;;;;;;;;;;22.10;50.40;;;;;;5028027;28;1321;-71
2021/12/10 08:22:44;;;;;;;;;;;22.20;50.20;;;;;;5032304;28;1255;-70
2021/12/10 08:25:10;;;;;;;;;;;22.20;50.10;;;;;;5033224;28;1268;-70
2021/12/10 08:27:37;;;;;;;;;;;22.30;49.90;;;;;;5036413;28;1055;-70
2021/12/10 08:30:07;;;;;;;;;;;22.40;49.90;;;;;;5002121;28;1333;-70
2021/12/10 08:32:33;;;;;;;;;;;22.40;49.80;;;;;;5036179;28;1906;-70
2021/12/10 08:34:59;;;;;;;;;;;22.40;49.70;;;;;;5036285;28;1320;-70
2021/12/10 08:37:25;;;;;;;;;;;22.50;49.60;;;;;;5018439;28;1116;-71
2021/12/10 08:39:50;;;;;;;;;;;22.50;49.50;;;;;;5036100;28;1324;-70
2021/12/10 08:42:16;;;;;;;;;;;22.60;49.50;;;;;;5035747;28;1309;-70
2021/12/10 08:44:42;;;;;;;;;;;22.60;49.40;;;;;;5036127;28;1147;-70
2021/12/10 08:47:08;;;;;;;;;;;22.60;49.30;;;;;;5036071;28;1365;-71
2021/12/10 08:49:34;;;;;;;;;;;22.60;49.20;;;;;;5036204;28;1395;-71
2021/12/10 08:51:59;;;;;;;;;;;22.70;49.20;;;;;;5035787;28;1910;-71
2021/12/10 08:54:26;;;;;;;;;;;22.70;49.20;;;;;;5035822;28;1271;-70
2021/12/10 08:56:52;;;;;;;;;;;22.70;49.10;;;;;;5035840;28;1358;-70
2021/12/10 08:59:21;;;;;;;;;;;22.80;49.10;;;;;;5035452;28;1311;-71
2021/12/10 09:01:47;;;;;;;;;;;22.80;49.10;;;;;;5035551;28;1304;-70
2021/12/10 09:04:12;;;;;;;;;;;22.80;49.10;;;;;;5036273;28;1433;-70
2021/12/10 09:06:40;;;;;;;;;;;22.80;49.00;;;;;;5035695;28;1338;-71
2021/12/10 09:09:06;;;;;;;;;;;22.90;49.00;;;;;;5035609;28;1391;-71
2021/12/10 09:11:31;;;;;;;;;;;22.90;49.00;;;;;;5035371;28;1305;-70
2021/12/10 09:13:57;;;;;;;;;;;22.90;49.00;;;;;;5035249;28;1993;-70
2021/12/10 09:16:25;;;;;;;;;;;22.90;48.90;;;;;;5017972;28;1088;-70
2021/12/10 09:18:52;;;;;;;;;;;22.90;48.90;;;;;;5002100;28;1379;-70
2021/12/10 09:21:17;;;;;;;;;;;23.00;48.90;;;;;;5023710;28;1264;-70
2021/12/10 09:23:43;;;;;;;;;;;23.00;48.90;;;;;;5016117;28;1254;-70
2021/12/10 09:26:10;;;;;;;;;;;23.00;48.90;;;;;;5035414;28;1156;-70
2021/12/10 09:28:36;;;;;;;;;;;23.00;48.90;;;;;;5017436;28;1348;-70
2021/12/10 09:31:03;;;;;;;;;;;23.00;48.90;;;;;;5012474;28;1639;-70
2021/12/10 09:33:29;;;;;;;;;;;23.00;48.90;;;;;;5031402;28;1898;-70
2021/12/10 09:35:54;;;;;;;;;;;23.00;48.90;;;;;;5029301;28;1213;-69
2021/12/10 09:38:21;;;;;;;;;;;23.00;48.90;;;;;;5015130;28;1637;-69
2021/12/10 09:40:47;;;;;;;;;;;23.00;48.90;;;;;;5028767;28;1291;-70
2021/12/10 09:43:13;;;;;;;;;;;23.00;48.90;;;;;;5034507;28;1217;-70
2021/12/10 09:45:39;;;;;;;;;;;23.00;49.00;;;;;;5033206;28;1985;-69
2021/12/10 09:48:05;;;;;;;;;;;23.00;49.00;;;;;;5030936;28;1299;-69
2021/12/10 09:50:31;;;;;;;;;;;23.00;49.00;;;;;;5027509;28;1771;-70
2021/12/10 09:52:57;;;;;;;;;;;23.00;49.70;;;;;;5027694;28;1902;-70
2021/12/10 09:55:22;;;;;;;;;;;23.00;49.10;;;;;;5013633;28;1281;-70
2021/12/10 09:57:48;;;;;;;;;;;23.00;49.10;;;;;;5016834;28;1308;-69
2021/12/10 10:00:19;;;;;;;;;;;23.00;49.20;;;;;;5032779;28;1791;-69
2021/12/10 10:02:45;;;;;;;;;;;23.00;49.20;;;;;;5033097;28;1332;-70
2021/12/10 10:05:10;;;;;;;;;;;23.00;49.20;;;;;;5034546;28;1202;-70
2021/12/10 10:07:37;;;;;;;;;;;23.00;49.20;;;;;;5034544;28;1312;-70
2021/12/10 10:10:07;;;;;;;;;;;23.00;49.30;;;;;;5016469;28;1465;-70
2021/12/10 10:12:34;;;;;;;;;;;23.00;49.20;;;;;;5034252;28;1909;-70
2021/12/10 10:14:59;;;;;;;;;;;23.00;49.20;;;;;;5034665;28;1140;-69
2021/12/10 10:17:25;;;;;;;;;;;23.00;49.90;;;;;;5028949;28;1159;-70
2021/12/10 10:19:50;;;;;;;;;;;23.00;49.30;;;;;;5027118;28;1358;-69
2021/12/10 10:22:17;;;;;;;;;;;22.90;49.20;;;;;;5016247;28;1298;-70
2021/12/10 10:24:42;;;;;;;;;;;22.90;49.30;;;;;;5016408;28;1337;-70
2021/12/10 10:27:09;;;;;;;;;;;22.90;49.30;;;;;;5034385;28;1351;-70
2021/12/10 10:29:37;;;;;;;;;;;22.90;49.40;;;;;;5016358;28;1399;-69
2021/12/10 10:32:09;;;;;;;;;;;22.90;49.40;;;;;;5016368;28;1894;-69
2021/12/10 10:34:36;;;;;;;;;;;22.80;49.40;;;;;;5034053;28;1052;-69
2021/12/10 10:37:02;;;;;;;;;;;22.80;49.40;;;;;;5033991;28;1379;-69
2021/12/10 10:39:32;;;;;;;;;;;22.80;49.50;;;;;;5033885;28;1361;-70
2021/12/10 10:41:58;;;;;;;;;;;22.80;49.60;;;;;;5016616;28;1230;-69
2021/12/10 10:44:23;;;;;;;;;;;22.80;49.70;;;;;;5033819;28;1299;-70
2021/12/10 10:46:49;;;;;;;;;;;22.70;49.70;;;;;;5029716;28;1929;-70
2021/12/10 10:49:30;;;;;;;;;;;22.70;49.70;;;;;;5030491;28;1519;-69
2021/12/10 10:51:56;;;;;;;;;;;22.60;49.80;;;;;;5033185;28;1967;-70
2021/12/10 10:54:22;;;;;;;;;;;22.60;49.80;;;;;;5033831;28;1366;-71
2021/12/10 10:56:47;;;;;;;;;;;22.60;49.90;;;;;;5032289;28;1373;-71
2021/12/10 10:59:14;;;;;;;;;;;22.60;50.00;;;;;;5033533;28;1544;-71
2021/12/10 11:01:44;;;;;;;;;;;22.50;50.00;;;;;;5031958;28;1076;-71
2021/12/10 11:04:15;;;;;;;;;;;22.50;50.10;;;;;;5032316;28;1311;-70
2021/12/10 11:06:42;;;;;;;;;;;22.50;50.20;;;;;;5034795;28;1264;-71
2021/12/10 11:09:10;;;;;;;;;;;22.50;50.30;;;;;;5033434;28;1320;-71
2021/12/10 11:11:40;;;;;;;;;;;22.40;50.30;;;;;;5031890;28;1301;-72
2021/12/10 11:14:10;;;;;;;;;;;22.40;50.30;;;;;;5033249;28;1967;-70
2021/12/10 11:16:36;;;;;;;;;;;22.40;50.40;;;;;;5032130;28;1286;-71
2021/12/10 11:19:01;;;;;;;;;;;22.40;50.50;;;;;;5020842;28;1416;-71
2021/12/10 11:21:35;;;;;;;;;;;22.30;50.50;;;;;;5032880;28;1325;-71
2021/12/10 11:24:12;;;;;;;;;;;22.30;50.60;;;;;;5033121;28;1327;-70
2021/12/10 11:26:58;;;;;;;;;;;22.30;50.60;;;;;;5032986;28;1279;-70
2021/12/10 11:29:44;;;;;;;;;;;22.30;50.70;;;;;;5032387;28;1305;-70
2021/12/10 11:32:11;;;;;;;;;;;22.20;50.70;;;;;;5032357;28;1923;-70
2021/12/10 11:34:56;;;;;;;;;;;22.20;50.70;;;;;;5015251;28;1327;-71
2021/12/10 11:37:40;;;;;;;;;;;22.20;50.80;;;;;;5015496;28;1355;-71
2021/12/10 11:40:07;;;;;;;;;;;22.20;50.80;;;;;;5032819;28;1359;-71
2021/12/10 11:42:35;;;;;;;;;;;22.20;50.90;;;;;;5032600;28;1273;-71
2021/12/10 11:45:29;;;;;;;;;;;22.10;50.90;;;;;;5032967;28;1313;-71
2021/12/10 11:48:04;;;;;;;;;;;22.10;50.90;;;;;;5033155;28;1157;-71
2021/12/10 11:50:30;;;;;;;;;;;22.10;50.90;;;;;;5032682;28;1370;-71
2021/12/10 11:53:02;;;;;;;;;;;22.10;51.00;;;;;;5032456;28;1968;-71
2021/12/10 11:55:28;;;;;;;;;;;22.10;51.00;;;;;;5031585;28;1076;-71
2021/12/10 11:57:53;;;;;;;;;;;22.10;51.00;;;;;;5031462;28;1326;-71
2021/12/10 12:00:21;;;;;;;;;;;22.10;51.00;;;;;;5033713;28;1373;-71
2021/12/10 12:02:47;;;;;;;;;;;22.10;51.00;;;;;;5036329;28;1596;-71
2021/12/10 12:05:14;;;;;;;;;;;22.20;51.00;;;;;;5036831;28;1260;-71
2021/12/10 12:07:46;;;;;;;;;;;22.20;50.90;;;;;;5036997;28;1399;-71
2021/12/10 12:10:12;;;;;;;;;;;22.30;50.90;;;;;;5035365;28;1330;-71
2021/12/10 12:12:42;;;;;;;;;;;22.30;50.80;;;;;;5036404;28;1898;-71
2021/12/10 12:15:10;;;;;;;;;;;22.40;50.70;;;;;;5021277;28;1289;-71
2021/12/10 12:17:40;;;;;;;;;;;22.40;50.60;;;;;;5028394;28;1053;-71
2021/12/10 12:20:11;;;;;;;;;;;22.40;50.60;;;;;;5031706;28;1319;-71
2021/12/10 12:25:24;;;;;;;;;;;22.50;50.40;;;;;;5034536;28;1387;-71
2021/12/10 12:28:03;;;;;;;;;;;22.50;50.30;;;;;;5034460;28;1077;-70
2021/12/10 12:30:28;;;;;;;;;;;22.60;50.30;;;;;;5018232;28;1894;-71
2021/12/10 12:32:54;;;;;;;;;;;22.50;50.20;;;;;;5018299;28;1924;-71
2021/12/10 12:35:21;;;;;;;;;;;22.60;50.20;;;;;;5018753;28;1112;-71
2021/12/10 12:37:46;;;;;;;;;;;22.60;50.10;;;;;;5036483;28;1307;-71
2021/12/10 12:40:12;;;;;;;;;;;22.60;50.20;;;;;;5017953;28;1557;-71
2021/12/10 12:42:47;;;;;;;;;;;22.50;50.10;;;;;;5018293;28;1171;-71
2021/12/10 12:45:14;;;;;;;;;;;22.60;50.20;;;;;;5036293;28;1325;-71
2021/12/10 12:47:43;;;;;;;;;;;22.50;50.20;;;;;;5035056;28;1323;-71
2021/12/10 12:50:08;;;;;;;;;;;22.50;50.20;;;;;;5034593;28;1375;-70
2021/12/10 12:52:35;;;;;;;;;;;22.50;50.20;;;;;;5035617;28;1962;-70
2021/12/10 12:55:12;;;;;;;;;;;22.50;50.30;;;;;;5034702;28;1066;-71
2021/12/10 12:57:39;;;;;;;;;;;22.50;50.30;;;;;;5035929;28;1322;-70
2021/12/10 13:00:06;;;;;;;;;;;22.50;50.40;;;;;;5036185;28;1408;-70
2021/12/10 13:02:31;;;;;;;;;;;22.40;50.40;;;;;;5017697;28;1319;-71
2021/12/10 13:04:57;;;;;;;;;;;22.40;50.50;;;;;;5035599;28;1315;-70
2021/12/10 13:07:24;;;;;;;;;;;22.40;50.50;;;;;;5035652;28;1343;-70
2021/12/10 13:09:54;;;;;;;;;;;22.40;50.50;;;;;;5035688;28;1374;-70
2021/12/10 13:12:30;;;;;;;;;;;22.40;50.60;;;;;;5034592;28;1972;-71
2021/12/10 13:15:02;;;;;;;;;;;22.30;50.60;;;;;;5034645;28;1072;-70
2021/12/10 13:17:33;;;;;;;;;;;22.30;50.60;;;;;;5028734;28;1360;-71
2021/12/10 13:20:00;;;;;;;;;;;22.30;50.60;;;;;;5026086;28;1307;-71
2021/12/10 13:22:27;;;;;;;;;;;22.30;50.70;;;;;;5004806;28;1285;-70
2021/12/10 13:24:54;;;;;;;;;;;22.30;50.70;;;;;;5035335;28;1365;-71
2021/12/10 13:27:20;;;;;;;;;;;22.30;50.80;;;;;;5035319;28;1296;-71
2021/12/10 13:29:45;;;;;;;;;;;22.20;50.70;;;;;;5035638;28;1357;-71
2021/12/10 13:32:11;;;;;;;;;;;22.20;50.80;;;;;;5034599;28;1898;-71
2021/12/10 13:34:36;;;;;;;;;;;22.20;50.90;;;;;;5033927;28;1345;-71
2021/12/10 13:37:03;;;;;;;;;;;22.20;51.00;;;;;;5017371;28;1053;-71
2021/12/10 13:39:28;;;;;;;;;;;22.20;51.00;;;;;;5035065;28;1271;-71
2021/12/10 13:41:54;;;;;;;;;;;22.20;51.00;;;;;;5034508;28;1182;-71
2021/12/10 13:46:55;;;;;;;;;;;22.10;51.00;;;;;;5034653;28;1346;-71
2021/12/10 13:49:20;;;;;;;;;;;22.10;51.10;;;;;;5033679;28;1392;-71
2021/12/10 13:51:47;;;;;;;;;;;22.10;51.10;;;;;;5033822;28;1329;-71
2021/12/10 13:54:22;;;;;;;;;;;22.10;51.10;;;;;;5033708;28;1894;-71
2021/12/10 13:56:55;;;;;;;;;;;22.10;51.10;;;;;;5034887;28;1300;-71
2021/12/10 13:59:22;;;;;;;;;;;22.10;51.20;;;;;;5034436;28;1283;-71
2021/12/10 14:01:47;;;;;;;;;;;22.00;51.20;;;;;;5032912;28;1361;-71
2021/12/10 14:04:17;;;;;;;;;;;22.00;51.20;;;;;;5034661;28;1329;-71
2021/12/10 14:06:51;;;;;;;;;;;22.00;51.20;;;;;;5034450;28;1295;-71
2021/12/10 14:09:41;;;;;;;;;;;22.00;51.30;;;;;;5034673;28;1316;-71
2021/12/10 14:12:09;;;;;;;;;;;22.00;51.30;;;;;;5031036;28;1902;-71
2021/12/10 14:14:36;;;;;;;;;;;22.00;51.30;;;;;;5034142;28;1284;-71
2021/12/10 14:17:03;;;;;;;;;;;22.00;51.50;;;;;;5028020;28;1896;-71
2021/12/10 14:19:29;;;;;;;;;;;21.90;51.30;;;;;;5024207;28;1365;-71
2021/12/10 14:21:55;;;;;;;;;;;21.90;51.40;;;;;;5007931;28;1475;-71
2021/12/10 14:24:30;;;;;;;;;;;21.90;51.40;;;;;;5032721;28;1311;-71
2021/12/10 14:27:08;;;;;;;;;;;21.90;51.40;;;;;;5032600;28;1184;-71
2021/12/10 14:29:33;;;;;;;;;;;21.90;51.50;;;;;;5033385;28;1375;-71
2021/12/10 14:31:59;;;;;;;;;;;21.80;51.50;;;;;;5033381;28;1953;-71
2021/12/10 14:34:24;;;;;;;;;;;21.80;51.50;;;;;;5016287;28;1124;-71
2021/12/10 14:36:57;;;;;;;;;;;21.80;51.60;;;;;;5033784;28;1318;-70
2021/12/10 14:39:23;;;;;;;;;;;21.80;51.60;;;;;;5033939;28;1448;-71
2021/12/10 14:41:48;;;;;;;;;;;21.80;51.70;;;;;;5033586;28;1333;-71
2021/12/10 14:44:18;;;;;;;;;;;21.70;51.70;;;;;;5033867;28;1260;-71
2021/12/10 14:46:44;;;;;;;;;;;21.80;51.70;;;;;;5033867;28;1260;-71